createdAt,value
2018-12-05T00:02:27.601Z,37.73
2018-12-05T00:04:55.128Z,40.00
2018-12-05T00:07:22.679Z,7.27
2018-12-05T00:09:50.215Z,5.93
2018-12-05T00:12:17.735Z,9.33
2018-12-05T00:14:45.401Z,16.77
2018-12-05T00:17:12.932Z,13.87
2018-12-05T00:19:40.459Z,6.83
2018-12-05T00:22:08.323Z,11.93
2018-12-05T00:24:35.848Z,13.43
2018-12-05T00:27:03.376Z,24.07
2018-12-05T00:29:30.972Z,17.40
2018-12-05T00:31:58.500Z,16.93
2018-12-05T00:34:26.046Z,28.83
2018-12-05T00:36:53.716Z,43.67
2018-12-05T00:39:21.251Z,31.47
2018-12-05T00:41:48.813Z,23.47
2018-12-05T00:44:16.495Z,30.80
2018-12-05T00:46:44.040Z,23.63
2018-12-05T00:49:11.676Z,49.57
2018-12-05T00:51:39.560Z,24.73
2018-12-05T00:54:07.091Z,23.07
2018-12-05T00:56:35.036Z,22.77
2018-12-05T00:59:02.635Z,27.63
2018-12-05T01:01:30.180Z,24.97
2018-12-05T01:03:57.828Z,22.20
2018-12-05T01:06:25.536Z,18.40
2018-12-05T01:08:53.068Z,25.30
2018-12-05T01:11:20.609Z,16.13
2018-12-05T01:13:48.172Z,22.97
2018-12-05T01:16:15.711Z,18.27
2018-12-05T01:18:43.265Z,12.63
2018-12-05T01:21:10.870Z,18.87
2018-12-05T01:23:38.400Z,18.57
2018-12-05T01:26:06.040Z,19.93
2018-12-05T01:28:33.761Z,21.53
2018-12-05T01:31:01.304Z,28.13
2018-12-05T01:33:28.828Z,14.50
2018-12-05T01:35:56.540Z,21.23
2018-12-05T01:38:24.087Z,34.63
2018-12-05T01:40:51.615Z,23.67
2018-12-05T01:43:19.180Z,15.80
2018-12-05T01:45:46.713Z,21.40
2018-12-05T01:48:14.245Z,12.50
2018-12-05T01:50:42.056Z,17.57
2018-12-05T01:53:09.700Z,16.10
2018-12-05T01:55:37.228Z,16.80
2018-12-05T01:58:04.795Z,17.40
2018-12-05T02:00:32.524Z,17.43
2018-12-05T02:03:00.056Z,13.40
2018-12-05T02:05:27.772Z,14.63
2018-12-05T02:07:55.304Z,18.27
2018-12-05T02:10:22.862Z,13.63
2018-12-05T02:12:50.648Z,12.60
2018-12-05T02:15:18.164Z,17.00
2018-12-05T02:17:45.922Z,10.70
2018-12-05T02:20:13.500Z,7.93
2018-12-05T02:22:41.020Z,8.70
2018-12-05T02:25:08.564Z,7.57
2018-12-05T02:27:36.124Z,8.83
2018-12-05T02:30:04.348Z,5.23
2018-12-05T02:32:31.926Z,5.60
2018-12-05T02:34:59.636Z,6.03
2018-12-05T02:37:27.161Z,5.53
2018-12-05T02:39:55.279Z,5.60
2018-12-05T02:42:23.004Z,7.00
2018-12-05T02:44:50.528Z,7.93
2018-12-05T02:47:18.288Z,12.03
2018-12-05T02:49:45.988Z,10.40
2018-12-05T02:52:13.532Z,4.17
2018-12-05T02:54:41.090Z,5.60
2018-12-05T02:57:08.765Z,5.77
2018-12-05T02:59:36.296Z,5.87
2018-12-05T03:02:03.892Z,24.63
2018-12-05T03:04:31.452Z,16.30
2018-12-05T03:06:58.986Z,17.00
2018-12-05T03:09:26.510Z,8.07
2018-12-05T03:11:54.738Z,7.50
2018-12-05T03:14:22.274Z,39.70
2018-12-05T03:16:50.449Z,16.83
2018-12-05T03:19:18.043Z,37.37
2018-12-05T03:21:45.569Z,51.00
2018-12-05T03:24:13.201Z,118.67
2018-12-05T03:26:40.765Z,141.73
2018-12-05T03:29:08.292Z,147.37
2018-12-05T03:31:35.862Z,154.73
2018-12-05T03:34:03.700Z,174.33
2018-12-05T03:36:31.280Z,112.17
2018-12-05T03:38:58.848Z,70.50
2018-12-05T03:41:26.742Z,115.13
2018-12-05T03:43:54.300Z,112.00
2018-12-05T03:46:21.837Z,147.47
2018-12-05T03:48:49.404Z,99.73
2018-12-05T03:51:16.940Z,95.13
2018-12-05T03:53:44.491Z,201.20
2018-12-05T03:56:12.049Z,61.17
2018-12-05T03:58:39.581Z,60.83
2018-12-05T04:01:07.242Z,76.97
2018-12-05T04:03:35.044Z,114.70
2018-12-05T04:06:02.579Z,47.27
2018-12-05T04:08:30.103Z,42.63
2018-12-05T04:10:57.836Z,45.57
2018-12-05T04:13:25.369Z,102.60
2018-12-05T04:15:52.900Z,59.77
2018-12-05T04:18:20.465Z,69.80
2018-12-05T04:20:48.000Z,45.87
2018-12-05T04:23:15.526Z,27.53
2018-12-05T04:25:45.120Z,10.73
2018-12-05T04:28:12.644Z,5.97
2018-12-05T04:30:40.206Z,5.53
2018-12-05T04:33:07.759Z,5.20
2018-12-05T04:35:35.285Z,5.83
2018-12-05T04:38:02.935Z,5.40
2018-12-05T04:40:30.768Z,5.70
2018-12-05T04:42:58.301Z,5.00
2018-12-05T04:45:25.829Z,4.63
2018-12-05T04:47:53.660Z,8.23
2018-12-05T04:50:21.191Z,34.40
2018-12-05T04:52:48.744Z,44.70
2018-12-05T04:55:16.331Z,26.87
2018-12-05T04:57:43.950Z,6.80
2018-12-05T05:00:11.480Z,11.30
2018-12-05T05:02:39.172Z,12.13
2018-12-05T05:05:06.911Z,8.10
2018-12-05T05:07:34.432Z,5.60
2018-12-05T05:10:02.099Z,4.70
2018-12-05T05:12:29.620Z,4.63
2018-12-05T05:14:57.164Z,5.50
2018-12-05T05:17:24.879Z,4.30
2018-12-05T05:19:52.395Z,6.13
2018-12-05T05:22:19.916Z,5.80
2018-12-05T05:24:47.662Z,5.53
2018-12-05T05:27:15.186Z,5.43
2018-12-05T05:29:42.699Z,6.30
2018-12-05T05:32:10.607Z,8.20
2018-12-05T05:34:40.128Z,9.80
2018-12-05T05:37:07.657Z,13.87
2018-12-05T05:39:35.473Z,9.07
2018-12-05T05:42:03.003Z,10.93
2018-12-05T05:44:30.528Z,8.13
2018-12-05T05:46:58.087Z,11.20
2018-12-05T05:49:25.612Z,8.87
2018-12-05T05:51:53.141Z,7.77
2018-12-05T05:54:20.715Z,16.87
2018-12-05T05:56:48.252Z,18.00
2018-12-05T05:59:15.770Z,8.83
2018-12-05T06:01:43.381Z,14.03
2018-12-05T06:04:10.912Z,8.47
2018-12-05T06:06:38.433Z,7.40
2018-12-05T06:09:07.096Z,10.53
2018-12-05T06:11:34.619Z,11.37
2018-12-05T06:14:02.147Z,11.53
2018-12-05T06:16:29.906Z,11.47
2018-12-05T06:18:57.433Z,18.93
2018-12-05T06:21:24.959Z,18.03
2018-12-05T06:23:52.696Z,11.10
2018-12-05T06:26:20.243Z,7.60
2018-12-05T06:28:47.776Z,10.60
2018-12-05T06:31:15.456Z,10.40
2018-12-05T06:33:42.975Z,9.97
2018-12-05T06:36:10.507Z,12.60
2018-12-05T06:38:39.174Z,7.00
2018-12-05T06:41:08.659Z,15.13
2018-12-05T06:43:37.124Z,13.37
2018-12-05T06:46:04.688Z,6.13
2018-12-05T06:48:32.212Z,12.53
2018-12-05T06:50:59.737Z,9.83
2018-12-05T06:53:27.320Z,37.73
2018-12-05T06:55:54.853Z,8.77
2018-12-05T06:58:22.416Z,15.73
2018-12-05T07:00:50.269Z,21.83
2018-12-05T07:03:17.806Z,23.53
2018-12-05T07:05:45.360Z,62.90
2018-12-05T07:08:13.079Z,17.83
2018-12-05T07:10:40.600Z,26.97
2018-12-05T07:13:08.139Z,22.87
2018-12-05T07:15:35.711Z,17.97
2018-12-05T07:18:03.362Z,12.83
2018-12-05T07:20:30.934Z,14.97
2018-12-05T07:22:58.652Z,17.30
2018-12-05T07:25:26.197Z,14.27
2018-12-05T07:27:53.719Z,16.17
2018-12-05T07:30:21.276Z,10.37
2018-12-05T07:32:49.751Z,12.43
2018-12-05T07:35:17.276Z,21.57
2018-12-05T07:37:44.941Z,22.73
2018-12-05T07:40:12.469Z,18.23
2018-12-05T07:42:39.996Z,12.93
2018-12-05T07:45:08.010Z,26.77
2018-12-05T07:47:35.537Z,25.00
2018-12-05T07:50:03.566Z,25.07
2018-12-05T07:52:31.275Z,33.87
2018-12-05T07:54:58.830Z,24.40
2018-12-05T07:57:26.392Z,19.20
2018-12-05T07:59:53.951Z,31.93
2018-12-05T08:02:21.588Z,22.87
2018-12-05T08:04:49.123Z,32.83
2018-12-05T08:07:16.943Z,30.50
2018-12-05T08:09:44.468Z,34.83
2018-12-05T08:12:11.996Z,28.07
2018-12-05T08:14:39.725Z,31.77
2018-12-05T08:17:07.271Z,31.67
2018-12-05T08:19:34.820Z,20.13
2018-12-05T08:22:02.396Z,26.13
2018-12-05T08:24:29.928Z,20.83
2018-12-05T08:26:57.468Z,24.63
2018-12-05T08:29:25.184Z,22.30
2018-12-05T08:31:52.749Z,17.60
2018-12-05T08:34:20.272Z,19.60
2018-12-05T08:36:47.858Z,14.47
2018-12-05T08:39:15.380Z,12.93
2018-12-05T08:41:42.995Z,23.43
2018-12-05T08:44:10.558Z,17.33
2018-12-05T08:46:38.084Z,19.57
2018-12-05T08:49:06.070Z,21.20
2018-12-05T08:51:33.728Z,26.63
2018-12-05T08:54:01.269Z,16.57
2018-12-05T08:56:28.824Z,23.63
2018-12-05T08:58:56.507Z,27.07
2018-12-05T09:01:25.068Z,19.27
2018-12-05T09:03:52.608Z,17.60
2018-12-05T09:06:20.182Z,28.57
2018-12-05T09:08:47.712Z,22.93
2018-12-05T09:11:15.268Z,21.20
2018-12-05T09:13:43.009Z,26.33
2018-12-05T09:16:10.538Z,18.37
2018-12-05T09:18:38.087Z,34.43
2018-12-05T09:21:05.773Z,16.67
2018-12-05T09:23:33.303Z,24.83
2018-12-05T09:26:00.932Z,28.00
2018-12-05T09:28:28.495Z,20.50
2018-12-05T09:30:56.030Z,19.47
2018-12-05T09:33:23.556Z,26.80
2018-12-05T09:35:51.140Z,19.93
2018-12-05T09:38:18.667Z,15.93
2018-12-05T09:40:46.234Z,17.80
2018-12-05T09:43:13.800Z,19.50
2018-12-05T09:45:41.328Z,17.20
2018-12-05T09:48:08.860Z,18.53
2018-12-05T09:50:36.593Z,19.53
2018-12-05T09:53:04.126Z,24.00
2018-12-05T09:55:31.685Z,25.57
2018-12-05T09:57:59.409Z,20.83
2018-12-05T10:00:27.042Z,22.10
2018-12-05T10:02:54.572Z,24.30
2018-12-05T10:05:22.139Z,21.53
2018-12-05T10:07:49.696Z,21.90
2018-12-05T10:10:17.223Z,24.00
2018-12-05T10:12:44.960Z,30.40
2018-12-05T10:15:12.528Z,22.87
2018-12-05T10:17:40.167Z,28.23
2018-12-05T10:20:07.950Z,20.30
2018-12-05T10:22:35.476Z,21.07
2018-12-05T10:25:03.112Z,24.07
2018-12-05T10:27:30.803Z,27.50
2018-12-05T10:29:58.348Z,25.57
2018-12-05T10:32:25.905Z,26.27
2018-12-05T10:34:53.500Z,27.50
2018-12-05T10:37:21.052Z,20.63
2018-12-05T10:39:48.584Z,25.37
2018-12-05T10:42:16.147Z,23.87
2018-12-05T10:44:43.783Z,23.13
2018-12-05T10:47:11.312Z,20.30
2018-12-05T10:49:39.008Z,19.90
2018-12-05T10:52:06.647Z,20.50
2018-12-05T10:54:34.273Z,22.03
2018-12-05T10:57:02.235Z,34.40
2018-12-05T10:59:29.768Z,19.33
2018-12-05T11:02:02.920Z,23.50
2018-12-05T11:04:36.057Z,19.97
2018-12-05T11:07:09.047Z,16.60
2018-12-05T11:09:42.169Z,35.40
2018-12-05T11:15:22.557Z,23.33
2018-12-05T11:17:55.752Z,20.30
2018-12-05T11:20:28.819Z,21.03
2018-12-05T11:23:02.111Z,20.27
2018-12-05T11:25:30.056Z,17.80
2018-12-05T11:27:57.582Z,23.20
2018-12-05T11:30:25.665Z,15.10
2018-12-05T11:32:53.191Z,28.57
2018-12-05T11:35:20.920Z,18.60
2018-12-05T11:37:48.587Z,22.03
2018-12-05T11:40:16.111Z,21.67
2018-12-05T11:42:43.759Z,23.13
2018-12-05T11:45:11.576Z,20.50
2018-12-05T11:47:39.203Z,18.23
2018-12-05T11:50:07.044Z,15.73
2018-12-05T11:52:34.673Z,23.23
2018-12-05T11:55:02.200Z,16.37
2018-12-05T11:57:29.724Z,20.63
2018-12-05T11:59:57.307Z,19.33
2018-12-05T12:02:24.825Z,22.47
2018-12-05T12:04:52.356Z,28.63
2018-12-05T12:07:19.908Z,28.60
2018-12-05T12:09:47.559Z,16.63
2018-12-05T12:12:20.740Z,21.23
2018-12-05T12:14:48.256Z,17.10
2018-12-05T12:17:15.786Z,19.27
2018-12-05T12:19:43.383Z,21.23
2018-12-05T12:22:10.901Z,21.97
2018-12-05T12:24:38.467Z,16.50
2018-12-05T12:27:06.132Z,21.40
2018-12-05T12:29:33.651Z,22.30
2018-12-05T12:32:01.180Z,21.63
2018-12-05T12:34:28.735Z,23.10
2018-12-05T12:36:56.264Z,22.03
2018-12-05T12:39:23.804Z,19.47
2018-12-05T12:41:51.555Z,21.03
2018-12-05T12:44:19.079Z,22.50
2018-12-05T12:46:46.591Z,23.33
2018-12-05T12:49:14.152Z,19.73
2018-12-05T12:51:41.682Z,19.53
2018-12-05T12:54:09.211Z,29.53
2018-12-05T12:56:36.765Z,29.47
2018-12-05T12:59:04.288Z,32.93
2018-12-05T13:01:31.816Z,22.43
2018-12-05T13:03:59.534Z,29.70
2018-12-05T13:06:27.069Z,24.60
2018-12-05T13:08:54.636Z,28.57
2018-12-05T13:11:23.152Z,19.87
2018-12-05T13:13:50.705Z,26.07
2018-12-05T13:16:18.248Z,28.80
2018-12-05T13:18:46.139Z,26.67
2018-12-05T13:21:13.692Z,24.60
2018-12-05T13:23:41.207Z,19.27
2018-12-05T13:26:08.788Z,23.87
2018-12-05T13:28:36.312Z,17.53
2018-12-05T13:31:03.841Z,27.03
2018-12-05T13:33:31.412Z,18.27
2018-12-05T13:35:58.931Z,18.70
2018-12-05T13:38:26.444Z,19.73
2018-12-05T13:40:54.001Z,20.37
2018-12-05T13:43:21.516Z,23.63
2018-12-05T13:45:49.040Z,28.43
2018-12-05T13:48:17.549Z,20.30
2018-12-05T13:50:45.071Z,34.77
2018-12-05T13:53:12.649Z,21.60
2018-12-05T13:55:40.304Z,21.90
2018-12-05T13:58:07.828Z,24.53
2018-12-05T14:00:35.352Z,25.90
2018-12-05T14:03:02.935Z,30.90
2018-12-05T14:05:30.482Z,22.00
2018-12-05T14:07:58.035Z,26.50
2018-12-05T14:10:25.592Z,33.60
2018-12-05T14:12:55.133Z,29.30
2018-12-05T14:15:22.764Z,30.67
2018-12-05T14:17:50.619Z,28.83
2018-12-05T14:20:18.148Z,28.13
2018-12-05T14:22:45.683Z,23.20
2018-12-05T14:25:14.814Z,30.30
2018-12-05T14:27:42.603Z,32.87
2018-12-05T14:30:10.177Z,31.13
2018-12-05T14:32:37.921Z,32.87
2018-12-05T14:35:05.659Z,30.90
2018-12-05T14:37:33.176Z,31.60
2018-12-05T14:40:01.012Z,29.57
2018-12-05T14:42:28.547Z,34.00
2018-12-05T14:44:56.067Z,28.10
2018-12-05T14:47:23.688Z,22.20
2018-12-05T14:49:51.253Z,28.73
2018-12-05T14:52:18.780Z,33.03
2018-12-05T14:54:46.368Z,24.80
2018-12-05T14:57:13.900Z,31.87
2018-12-05T14:59:41.424Z,32.23
2018-12-05T15:02:09.001Z,31.27
2018-12-05T15:04:36.540Z,28.40
2018-12-05T15:07:04.064Z,26.23
2018-12-05T15:09:31.629Z,23.73
2018-12-05T15:11:59.191Z,20.60
2018-12-05T15:14:26.719Z,23.97
2018-12-05T15:16:54.288Z,22.57
2018-12-05T15:19:21.821Z,28.57
2018-12-05T15:21:49.551Z,25.77
2018-12-05T15:24:17.416Z,23.43
2018-12-05T15:26:45.540Z,28.73
2018-12-05T15:29:13.191Z,23.20
2018-12-05T15:31:40.901Z,19.23
2018-12-05T15:34:08.428Z,24.07
2018-12-05T15:36:35.953Z,13.67
2018-12-05T15:39:05.112Z,19.90
2018-12-05T15:41:32.636Z,13.07
2018-12-05T15:44:01.124Z,19.90
2018-12-05T15:46:28.706Z,14.60
2018-12-05T15:48:56.232Z,11.27
2018-12-05T15:51:23.763Z,14.37
2018-12-05T15:53:51.336Z,16.93
2018-12-05T15:56:18.968Z,16.30
2018-12-05T15:58:46.508Z,15.67
2018-12-05T16:01:14.079Z,18.37
2018-12-05T16:03:43.332Z,11.33
2018-12-05T16:06:11.219Z,13.93
2018-12-05T16:08:39.146Z,25.07
2018-12-05T16:11:06.675Z,15.20
2018-12-05T16:13:34.200Z,15.87
2018-12-05T16:16:01.763Z,24.93
2018-12-05T16:18:29.295Z,18.30
2018-12-05T16:20:56.833Z,12.33
2018-12-05T16:23:24.432Z,16.97
2018-12-05T16:25:52.012Z,18.97
2018-12-05T16:28:19.616Z,14.37
2018-12-05T16:30:47.188Z,19.70
2018-12-05T16:33:14.716Z,14.67
2018-12-05T16:35:42.253Z,15.87
2018-12-05T16:38:09.816Z,14.60
2018-12-05T16:40:37.362Z,27.13
2018-12-05T16:43:04.908Z,15.97
2018-12-05T16:45:32.629Z,18.70
2018-12-05T16:48:00.152Z,15.00
2018-12-05T16:50:27.688Z,21.13
2018-12-05T16:52:55.251Z,24.03
2018-12-05T16:55:22.784Z,16.27
2018-12-05T16:57:50.321Z,17.33
2018-12-05T17:00:18.161Z,22.33
2018-12-05T17:02:45.690Z,16.30
2018-12-05T17:05:13.319Z,12.60
2018-12-05T17:07:41.147Z,23.10
2018-12-05T17:10:08.780Z,18.97
2018-12-05T17:12:36.319Z,13.10
2018-12-05T17:15:04.240Z,11.90
2018-12-05T17:17:31.773Z,20.20
2018-12-05T17:19:59.300Z,16.07
2018-12-05T17:22:27.012Z,13.57
2018-12-05T17:24:55.551Z,16.97
2018-12-05T17:27:23.301Z,13.30
2018-12-05T17:29:51.020Z,19.13
2018-12-05T17:32:18.543Z,16.90
2018-12-05T17:34:46.072Z,12.63
2018-12-05T17:37:13.796Z,9.40
2018-12-05T17:39:41.320Z,10.90
2018-12-05T17:42:08.850Z,15.53
2018-12-05T17:44:36.403Z,10.90
2018-12-05T17:47:03.933Z,10.93
2018-12-05T17:49:31.456Z,13.23
2018-12-05T17:51:59.160Z,17.20
2018-12-05T17:54:26.710Z,12.17
2018-12-05T17:56:54.323Z,19.57
2018-12-05T17:59:22.046Z,22.63
2018-12-05T18:01:50.076Z,20.70
2018-12-05T18:04:17.609Z,11.77
2018-12-05T18:06:45.339Z,11.67
2018-12-05T18:09:12.868Z,12.60
2018-12-05T18:11:40.396Z,10.73
2018-12-05T18:14:07.964Z,14.40
2018-12-05T18:16:35.487Z,8.57
2018-12-05T18:19:03.009Z,14.93
2018-12-05T18:21:30.707Z,13.30
2018-12-05T18:23:58.261Z,15.03
2018-12-05T18:26:25.791Z,14.23
2018-12-05T18:28:53.364Z,11.17
2018-12-05T18:31:20.909Z,11.10
2018-12-05T18:33:48.440Z,17.77
2018-12-05T18:36:16.169Z,11.23
2018-12-05T18:38:43.720Z,12.30
2018-12-05T18:41:11.244Z,11.03
2018-12-05T18:43:39.042Z,12.40
2018-12-05T18:46:06.580Z,11.27
2018-12-05T18:48:34.143Z,14.30
2018-12-05T18:51:01.825Z,16.63
2018-12-05T18:53:29.368Z,18.60
2018-12-05T18:55:56.920Z,12.03
2018-12-05T18:58:24.612Z,13.43
2018-12-05T19:00:52.136Z,9.53
2018-12-05T19:03:19.674Z,16.67
2018-12-05T19:05:47.489Z,17.20
2018-12-05T19:08:15.031Z,11.30
2018-12-05T19:10:42.561Z,11.33
2018-12-05T19:13:10.377Z,13.90
2018-12-05T19:15:37.909Z,11.27
2018-12-05T19:18:05.471Z,13.20
2018-12-05T19:20:33.287Z,12.17
2018-12-05T19:23:00.824Z,12.83
2018-12-05T19:25:28.347Z,12.83
2018-12-05T19:27:55.906Z,10.47
2018-12-05T19:30:23.424Z,12.30
2018-12-05T19:32:50.948Z,13.37
2018-12-05T19:35:18.531Z,14.60
2018-12-05T19:37:46.060Z,11.80
2018-12-05T19:40:13.589Z,14.30
2018-12-05T19:42:41.299Z,10.23
2018-12-05T19:45:09.038Z,13.03
2018-12-05T19:47:36.568Z,15.57
2018-12-05T19:50:05.232Z,10.67
2018-12-05T19:52:33.367Z,11.03
2018-12-05T19:55:00.891Z,14.73
2018-12-05T19:57:28.532Z,14.97
2018-12-05T19:59:56.055Z,11.17
2018-12-05T20:02:23.579Z,19.63
2018-12-05T20:04:51.370Z,12.20
2018-12-05T20:07:18.896Z,10.50
2018-12-05T20:09:46.428Z,12.67
2018-12-05T20:12:14.214Z,12.97
2018-12-05T20:14:41.735Z,16.83
2018-12-05T20:17:10.032Z,18.40
2018-12-05T20:19:38.110Z,12.67
2018-12-05T20:22:05.649Z,14.53
2018-12-05T20:24:33.292Z,16.53
2018-12-05T20:27:00.950Z,18.40
2018-12-05T20:29:28.483Z,15.93
2018-12-05T20:31:56.012Z,9.63
2018-12-05T20:34:23.730Z,11.03
2018-12-05T20:36:51.272Z,18.40
2018-12-05T20:39:25.714Z,10.73
2018-12-05T20:41:48.449Z,12.77
2018-12-05T20:44:15.976Z,11.00
2018-12-05T20:46:43.508Z,13.53
2018-12-05T20:49:11.205Z,10.93
2018-12-05T20:51:38.740Z,24.47
2018-12-05T20:54:06.271Z,10.87
2018-12-05T20:56:33.861Z,14.80
2018-12-05T20:59:02.016Z,14.27
2018-12-05T21:01:29.945Z,25.80
2018-12-05T21:03:57.840Z,13.20
2018-12-05T21:06:25.378Z,12.07
2018-12-05T21:08:53.816Z,15.63
2018-12-05T21:11:21.527Z,15.60
2018-12-05T21:13:49.057Z,16.00
2018-12-05T21:16:16.588Z,16.40
2018-12-05T21:18:44.155Z,12.80
2018-12-05T21:21:11.680Z,19.23
2018-12-05T21:23:39.334Z,14.50
2018-12-05T21:26:07.340Z,14.03
2018-12-05T21:28:34.882Z,17.87
2018-12-05T21:31:02.415Z,14.13
2018-12-05T21:33:30.400Z,14.03
2018-12-05T21:35:57.937Z,15.20
2018-12-05T21:38:25.479Z,18.40
2018-12-05T21:40:53.175Z,12.77
2018-12-05T21:43:20.712Z,15.80
2018-12-05T21:45:48.243Z,18.70
2018-12-05T21:48:15.828Z,12.73
2018-12-05T21:50:43.376Z,14.73
2018-12-05T21:53:10.907Z,18.80
2018-12-05T21:55:38.630Z,15.93
2018-12-05T21:58:06.171Z,17.80
2018-12-05T22:00:33.707Z,19.23
2018-12-05T22:03:01.271Z,17.70
2018-12-05T22:05:28.802Z,17.63
2018-12-05T22:07:56.470Z,16.07
2018-12-05T22:10:24.032Z,18.80
2018-12-05T22:12:51.560Z,11.73
2018-12-05T22:15:19.125Z,17.73
2018-12-05T22:17:46.696Z,18.97
2018-12-05T22:20:14.217Z,20.20
2018-12-05T22:22:41.748Z,15.63
2018-12-05T22:25:09.443Z,15.73
2018-12-05T22:27:36.963Z,19.83
2018-12-05T22:30:05.609Z,13.43
2018-12-05T22:32:33.457Z,21.80
2018-12-05T22:35:00.997Z,14.90
2018-12-05T22:37:28.531Z,15.00
2018-12-05T22:39:56.247Z,17.70
2018-12-05T22:42:23.797Z,10.53
2018-12-05T22:44:51.325Z,18.23
2018-12-05T22:47:18.988Z,16.37
2018-12-05T22:49:46.520Z,16.93
2018-12-05T22:52:14.048Z,13.60
2018-12-05T22:54:41.716Z,14.70
2018-12-05T22:57:13.099Z,13.50
2018-12-05T22:59:41.796Z,17.50
2018-12-05T23:02:09.657Z,15.90
2018-12-05T23:04:37.208Z,15.30
2018-12-05T23:07:04.772Z,15.60
2018-12-05T23:09:32.308Z,15.47
2018-12-05T23:11:59.840Z,18.30
2018-12-05T23:14:27.500Z,19.47
2018-12-05T23:16:55.028Z,18.73
2018-12-05T23:19:22.559Z,17.70
2018-12-05T23:21:50.279Z,16.60
2018-12-05T23:24:17.807Z,18.90
2018-12-05T23:26:45.344Z,23.43
2018-12-05T23:29:12.904Z,18.50
2018-12-05T23:31:40.439Z,14.23
2018-12-05T23:34:07.972Z,17.77
2018-12-05T23:36:35.637Z,18.10
2018-12-05T23:39:04.185Z,15.30
2018-12-05T23:41:31.711Z,18.37
2018-12-05T23:43:59.546Z,17.70
2018-12-05T23:46:27.184Z,13.20
2018-12-05T23:48:54.722Z,19.67
2018-12-05T23:51:22.444Z,18.63
2018-12-05T23:53:49.965Z,18.73
2018-12-05T23:56:17.491Z,20.27
2018-12-05T23:58:45.223Z,20.77
